Time;durP1;ratioP1;P1;durP2;ratioP2;P2;SDS_P1;SDS_P2;PMS_P1;PMS_P2;Temp;Humidity;BMP_temperature;BMP_pressure;BME280_temperature;BME280_humidity;BME280_pressure;Samples;Min_cycle;Max_cycle;Signal;HPM_P1;HPM_P2
2023/06/01 00:00:40;;;;;;;12.13;4.40;;;16.60;99.90;;;;;;5053741;28;20177;-71
2023/06/01 00:03:07;;;;;;;9.33;4.63;;;17.00;99.90;;;;;;5065944;28;20184;-72
2023/06/01 00:05:35;;;;;;;10.70;4.27;;;17.40;99.90;;;;;;5067240;28;20656;-71
2023/06/01 00:08:04;;;;;;;9.37;3.63;;;17.70;99.90;;;;;;5069944;28;20199;-71
2023/06/01 00:10:35;;;;;;;8.53;2.87;;;18.00;99.90;;;;;;5072521;28;20625;-70
2023/06/01 00:13:02;;;;;;;8.73;3.00;;;18.20;99.90;;;;;;5063481;28;20215;-71
2023/06/01 00:15:30;;;;;;;6.53;2.90;;;18.50;99.90;;;;;;5072516;28;20178;-71
2023/06/01 00:18:00;;;;;;;5.13;2.27;;;18.80;99.90;;;;;;5072776;28;20182;-72
2023/06/01 00:20:28;;;;;;;4.43;1.97;;;18.80;99.90;;;;;;5070836;28;20546;-71
2023/06/01 00:22:57;;;;;;;4.93;2.30;;;18.90;99.90;;;;;;5066580;28;20275;-72
2023/06/01 00:25:24;;;;;;;5.20;2.60;;;19.00;99.90;;;;;;5051857;28;20181;-71
2023/06/01 00:27:52;;;;;;;3.60;2.13;;;19.00;99.90;;;;;;5052351;28;20664;-71
2023/06/01 00:30:20;;;;;;;4.30;2.30;;;19.00;99.90;;;;;;5052540;28;20180;-72
2023/06/01 00:32:48;;;;;;;5.60;1.90;;;19.00;99.90;;;;;;5052251;28;20918;-71
2023/06/01 00:35:16;;;;;;;4.50;2.00;;;19.20;99.90;;;;;;5064149;28;20194;-72
2023/06/01 00:41:05;;;;;;;7.83;1.90;;;19.60;99.90;;;;;;5039783;28;20676;-73
2023/06/01 00:43:33;;;;;;;5.70;1.40;;;19.70;99.90;;;;;;5052624;28;20187;-72
2023/06/01 00:46:01;;;;;;;7.00;2.03;;;19.70;99.90;;;;;;5052116;28;20302;-71
2023/06/01 00:48:29;;;;;;;7.40;1.87;;;19.70;99.90;;;;;;5051979;28;20189;-71
2023/06/01 00:50:58;;;;;;;3.47;1.93;;;19.60;99.90;;;;;;5051439;28;20184;-72
2023/06/01 00:53:26;;;;;;;5.83;2.03;;;19.60;99.90;;;;;;5035666;28;20189;-69
2023/06/01 00:55:54;;;;;;;7.03;1.73;;;19.60;99.90;;;;;;5058985;28;20214;-70
2023/06/01 00:58:22;;;;;;;5.13;2.20;;;19.40;99.90;;;;;;5071532;28;20204;-71
2023/06/01 01:00:53;;;;;;;8.83;1.83;;;19.20;99.90;;;;;;5036200;28;20181;-72
2023/06/01 01:03:25;;;;;;;6.00;1.70;;;19.10;99.90;;;;;;5051995;28;20195;-69
2023/06/01 01:06:11;;;;;;;5.37;1.93;;;19.10;99.90;;;;;;5051358;28;20188;-70
2023/06/01 01:08:50;;;;;;;2.13;1.00;;;19.20;99.90;;;;;;5051957;28;20181;-72
2023/06/01 01:11:24;;;;;;;3.47;1.43;;;19.20;99.90;;;;;;5050994;28;20176;-71
2023/06/01 01:14:14;;;;;;;3.07;1.10;;;19.30;99.90;;;;;;5053960;28;20178;-71
2023/06/01 01:16:55;;;;;;;2.77;1.37;;;19.30;99.90;;;;;;5069190;28;20186;-71
2023/06/01 01:19:47;;;;;;;3.93;1.30;;;19.50;99.90;;;;;;5071776;28;20188;-70
2023/06/01 01:22:41;;;;;;;2.77;1.20;;;19.70;99.90;;;;;;5071565;28;20205;-71
2023/06/01 01:25:33;;;;;;;7.57;1.13;;;19.80;99.90;;;;;;5015996;28;20227;-72
2023/06/01 01:28:10;;;;;;;4.03;1.23;;;19.80;99.90;;;;;;5036032;28;20182;-72
2023/06/01 01:30:42;;;;;;;2.10;1.03;;;19.80;99.90;;;;;;5051815;28;20942;-72
2023/06/01 01:33:12;;;;;;;2.73;1.17;;;19.80;99.90;;;;;;5051217;28;20299;-72
2023/06/01 01:35:41;;;;;;;1.77;1.00;;;19.80;99.90;;;;;;5051369;28;20208;-72
2023/06/01 01:38:09;;;;;;;2.23;1.07;;;19.70;99.90;;;;;;5051287;28;20196;-72
2023/06/01 01:40:37;;;;;;;4.47;1.20;;;19.70;99.90;;;;;;5051060;28;20189;-71
2023/06/01 01:43:04;;;;;;;3.47;1.23;;;19.70;99.90;;;;;;5051125;28;20272;-72
2023/06/01 01:45:32;;;;;;;5.07;1.10;;;19.70;99.90;;;;;;5033408;28;20233;-70
2023/06/01 01:48:32;;;;;;;5.07;1.30;;;19.70;99.90;;;;;;5033304;28;20616;-72
2023/06/01 01:51:11;;;;;;;2.17;1.03;;;19.70;99.90;;;;;;5048427;28;20717;-72
2023/06/01 01:53:42;;;;;;;5.20;1.30;;;19.80;99.90;;;;;;5051203;28;20587;-71
2023/06/01 01:56:11;;;;;;;3.33;1.37;;;19.90;99.90;;;;;;5051350;28;20211;-71
2023/06/01 01:58:40;;;;;;;6.30;2.37;;;20.00;99.90;;;;;;5051405;28;20205;-72
2023/06/01 02:01:09;;;;;;;7.73;1.70;;;20.20;99.90;;;;;;5051280;28;20261;-72
2023/06/01 02:03:37;;;;;;;6.53;1.37;;;20.40;99.90;;;;;;5051198;28;20646;-72
2023/06/01 02:06:05;;;;;;;2.03;1.83;;;20.40;99.90;;;;;;5051432;28;20182;-72
2023/06/01 02:08:33;;;;;;;3.70;1.47;;;20.50;99.90;;;;;;5051133;28;20637;-71
2023/06/01 02:11:01;;;;;;;2.83;1.20;;;20.50;99.90;;;;;;5051274;28;20195;-72
2023/06/01 02:13:28;;;;;;;4.40;1.90;;;20.30;99.90;;;;;;5051101;28;20215;-71
2023/06/01 02:15:55;;;;;;;2.30;1.50;;;20.40;99.90;;;;;;5057550;28;20186;-72
2023/06/01 02:18:25;;;;;;;5.27;1.20;;;20.50;99.90;;;;;;5070743;28;20180;-71
2023/06/01 02:20:52;;;;;;;3.47;1.90;;;20.60;99.90;;;;;;5071006;28;20178;-71
2023/06/01 02:23:20;;;;;;;3.47;1.40;;;20.50;99.90;;;;;;5071053;28;20715;-72
2023/06/01 02:25:47;;;;;;;2.80;2.03;;;20.50;99.90;;;;;;5070860;28;20179;-72
2023/06/01 02:28:14;;;;;;;3.50;2.00;;;20.50;99.90;;;;;;5071252;28;20187;-72
2023/06/01 02:30:42;;;;;;;4.57;1.67;;;20.50;99.90;;;;;;5071008;28;20229;-72
2023/06/01 02:33:09;;;;;;;2.33;1.43;;;20.50;99.90;;;;;;5071021;28;20250;-72
2023/06/01 02:35:37;;;;;;;3.23;1.30;;;20.50;99.90;;;;;;5071170;28;20549;-72
2023/06/01 02:38:05;;;;;;;2.23;1.43;;;20.60;99.90;;;;;;5070920;28;20264;-72
2023/06/01 02:40:32;;;;;;;3.70;1.50;;;20.80;99.90;;;;;;5071155;28;20202;-73
2023/06/01 02:42:59;;;;;;;4.33;1.53;;;20.80;99.90;;;;;;5071048;28;20595;-72
2023/06/01 02:45:27;;;;;;;3.73;1.00;;;20.70;99.90;;;;;;5053060;28;20594;-72
2023/06/01 02:47:54;;;;;;;3.90;1.20;;;20.60;99.90;;;;;;5051171;28;20177;-71
2023/06/01 02:50:21;;;;;;;3.03;1.50;;;20.50;99.90;;;;;;5053287;28;20637;-73
2023/06/01 02:52:49;;;;;;;4.80;1.37;;;20.50;99.90;;;;;;5054338;28;20309;-73
2023/06/01 02:55:16;;;;;;;7.00;1.70;;;20.50;99.90;;;;;;5054284;28;20242;-72
2023/06/01 02:57:44;;;;;;;5.03;1.83;;;20.40;99.90;;;;;;5056883;28;20185;-72
2023/06/01 03:00:21;;;;;;;4.03;1.90;;;20.40;99.90;;;;;;5043140;28;20182;-72
2023/06/01 03:02:49;;;;;;;5.20;1.70;;;20.20;99.90;;;;;;5054589;28;20178;-72
2023/06/01 03:05:17;;;;;;;3.03;1.70;;;20.00;99.90;;;;;;5053171;28;20189;-71
2023/06/01 03:07:48;;;;;;;3.93;1.23;;;20.00;99.90;;;;;;5054428;28;20266;-71
2023/06/01 03:10:16;;;;;;;4.33;1.30;;;20.00;99.90;;;;;;5053823;28;20194;-72
2023/06/01 03:12:43;;;;;;;4.50;1.57;;;20.00;99.90;;;;;;5053850;28;20220;-70
2023/06/01 03:15:11;;;;;;;3.60;1.30;;;20.10;99.90;;;;;;5053607;28;20278;-68
2023/06/01 03:17:38;;;;;;;1.90;1.20;;;20.10;99.90;;;;;;5054235;28;20180;-70
2023/06/01 03:20:14;;;;;;;2.10;1.17;;;20.20;99.90;;;;;;5053921;28;20180;-69
2023/06/01 03:22:48;;;;;;;4.17;1.10;;;20.20;99.90;;;;;;5054018;28;20176;-70
2023/06/01 03:25:16;;;;;;;6.73;1.30;;;20.10;99.90;;;;;;5053674;28;20179;-70
2023/06/01 03:27:43;;;;;;;1.87;1.20;;;20.10;99.90;;;;;;5053950;28;20185;-70
2023/06/01 03:30:11;;;;;;;2.10;1.40;;;20.00;99.90;;;;;;5053774;28;20188;-72
2023/06/01 03:32:42;;;;;;;3.30;1.27;;;20.10;99.90;;;;;;5035679;28;20215;-72
2023/06/01 03:35:11;;;;;;;4.73;1.07;;;20.10;99.90;;;;;;5052295;28;20181;-72
2023/06/01 03:37:40;;;;;;;2.07;1.00;;;20.10;99.90;;;;;;5053821;28;20649;-71
2023/06/01 03:40:14;;;;;;;6.30;1.30;;;20.10;99.90;;;;;;5042413;28;20180;-70
2023/06/01 03:42:48;;;;;;;4.47;1.37;;;20.10;99.90;;;;;;5070346;28;20669;-72
2023/06/01 03:45:16;;;;;;;3.33;1.93;;;20.20;99.90;;;;;;5063738;28;20704;-71
2023/06/01 03:47:44;;;;;;;3.00;1.17;;;20.20;99.90;;;;;;5047011;28;20877;-69
2023/06/01 03:50:12;;;;;;;3.10;1.57;;;20.30;99.90;;;;;;5071480;28;20166;-72
2023/06/01 03:52:39;;;;;;;3.83;1.37;;;20.30;99.90;;;;;;5053331;28;20218;-71
2023/06/01 03:55:12;;;;;;;4.63;1.57;;;20.30;99.90;;;;;;5059234;28;20180;-70
2023/06/01 03:57:40;;;;;;;4.60;1.73;;;20.20;99.90;;;;;;5073031;28;20184;-71
2023/06/01 04:00:17;;;;;;;6.07;1.53;;;20.10;99.90;;;;;;5047600;28;20183;-70
2023/06/01 04:02:49;;;;;;;5.03;1.30;;;20.10;99.90;;;;;;5053079;28;20166;-71
2023/06/01 04:05:17;;;;;;;3.33;1.13;;;20.00;99.90;;;;;;5052966;28;20188;-70
2023/06/01 04:07:46;;;;;;;5.43;0.90;;;20.00;99.90;;;;;;5053336;28;20183;-70
2023/06/01 04:10:16;;;;;;;1.60;0.90;;;20.00;99.90;;;;;;5052667;28;20634;-71
2023/06/01 04:12:49;;;;;;;3.00;1.00;;;20.00;99.90;;;;;;5052345;28;20258;-71
2023/06/01 04:15:19;;;;;;;1.07;0.77;;;20.10;99.90;;;;;;5052133;28;20188;-69
2023/06/01 04:17:46;;;;;;;1.77;0.90;;;20.00;99.90;;;;;;5052903;28;20259;-71
2023/06/01 04:20:16;;;;;;;1.17;0.93;;;20.00;99.90;;;;;;5052553;28;20669;-71
2023/06/01 04:22:45;;;;;;;2.70;0.80;;;20.10;99.90;;;;;;5052668;28;20182;-71
2023/06/01 04:25:20;;;;;;;1.77;0.77;;;20.10;99.90;;;;;;5063920;28;20230;-71
2023/06/01 04:27:51;;;;;;;3.13;0.80;;;20.20;99.90;;;;;;5060116;28;20609;-69
2023/06/01 04:30:18;;;;;;;2.03;0.90;;;20.20;99.90;;;;;;5071990;28;20699;-71
2023/06/01 04:32:47;;;;;;;2.40;1.20;;;20.30;99.90;;;;;;5071808;28;20701;-71
2023/06/01 04:35:15;;;;;;;6.37;1.30;;;20.30;99.90;;;;;;5068396;28;20250;-71
2023/06/01 04:37:44;;;;;;;2.03;1.03;;;20.40;99.90;;;;;;5052914;28;20205;-70
2023/06/01 04:40:13;;;;;;;1.90;1.40;;;20.40;99.90;;;;;;5043604;28;20620;-71
2023/06/01 04:42:48;;;;;;;1.73;0.90;;;20.50;99.90;;;;;;5069440;28;20527;-71
2023/06/01 04:45:18;;;;;;;2.37;1.13;;;20.60;99.90;;;;;;5071815;28;20317;-69
2023/06/01 04:47:46;;;;;;;1.93;1.00;;;20.60;99.90;;;;;;5071177;28;20194;-71
2023/06/01 04:50:17;;;;;;;3.07;0.83;;;20.60;99.90;;;;;;5070623;28;20190;-71
2023/06/01 04:52:48;;;;;;;2.77;0.90;;;20.70;99.90;;;;;;5071274;28;20218;-72
2023/06/01 04:55:16;;;;;;;3.43;1.40;;;20.60;99.90;;;;;;5072457;28;20213;-72
2023/06/01 04:57:44;;;;;;;1.50;1.07;;;20.50;99.90;;;;;;5072068;28;20187;-72
2023/06/01 05:00:17;;;;;;;4.57;1.17;;;20.40;99.90;;;;;;5071994;28;20229;-72
2023/06/01 05:02:47;;;;;;;6.00;1.60;;;20.40;99.90;;;;;;5072027;28;20189;-72
2023/06/01 05:05:16;;;;;;;3.53;1.70;;;20.30;99.90;;;;;;5072069;28;20623;-71
2023/06/01 05:07:44;;;;;;;6.33;1.50;;;20.20;99.90;;;;;;5071928;28;20572;-70
2023/06/01 05:10:13;;;;;;;3.27;1.10;;;20.40;99.90;;;;;;5071949;28;20685;-70
2023/06/01 05:12:41;;;;;;;2.47;1.30;;;20.40;99.90;;;;;;5071909;28;20211;-71
2023/06/01 05:15:11;;;;;;;3.70;1.80;;;20.90;99.90;;;;;;5061192;28;20278;-71
2023/06/01 05:17:38;;;;;;;8.63;1.73;;;21.30;99.90;;;;;;5051602;28;20288;-71
2023/06/01 05:20:08;;;;;;;5.67;1.60;;;21.70;99.90;;;;;;5051520;28;20196;-70
2023/06/01 05:26:07;;;;;;;6.80;1.77;;;22.40;99.90;;;;;;5051187;28;20777;-70
2023/06/01 05:28:38;;;;;;;6.63;1.90;;;21.70;99.90;;;;;;5033567;28;20187;-70
2023/06/01 05:31:06;;;;;;;6.17;1.73;;;21.60;99.90;;;;;;5051571;28;20186;-70
2023/06/01 05:33:34;;;;;;;1.50;1.17;;;21.30;99.90;;;;;;5051449;28;20323;-70
2023/06/01 05:36:01;;;;;;;3.40;1.20;;;21.00;99.90;;;;;;5051166;28;20634;-71
2023/06/01 05:38:29;;;;;;;6.30;1.30;;;20.60;99.90;;;;;;5051618;28;20540;-71
2023/06/01 05:40:57;;;;;;;3.70;1.20;;;20.40;99.90;;;;;;5051268;28;20223;-71
2023/06/01 05:43:25;;;;;;;3.43;1.13;;;20.10;99.90;;;;;;5051221;28;20184;-72
2023/06/01 05:45:53;;;;;;;4.27;1.30;;;19.90;99.90;;;;;;5051152;28;20227;-69
2023/06/01 05:48:21;;;;;;;2.23;1.53;;;19.70;99.90;;;;;;5051096;28;20272;-68
2023/06/01 05:50:49;;;;;;;2.90;1.43;;;19.80;99.90;;;;;;5050035;28;20177;-70
2023/06/01 05:53:16;;;;;;;5.40;1.57;;;19.60;99.90;;;;;;5051097;28;20246;-70
2023/06/01 05:55:44;;;;;;;4.20;1.50;;;19.50;99.90;;;;;;5033191;28;20554;-70
2023/06/01 05:58:12;;;;;;;5.23;1.30;;;19.40;99.90;;;;;;5033162;28;20190;-72
2023/06/01 06:00:40;;;;;;;4.60;1.83;;;19.40;99.90;;;;;;5050720;28;20187;-71
2023/06/01 06:03:07;;;;;;;6.90;2.07;;;19.30;99.90;;;;;;5050920;28;20208;-72
2023/06/01 06:05:35;;;;;;;4.33;1.60;;;19.20;99.90;;;;;;5050797;28;20198;-72
2023/06/01 06:08:03;;;;;;;5.90;1.33;;;19.30;99.90;;;;;;5042781;28;20271;-72
2023/06/01 06:10:31;;;;;;;3.10;1.60;;;19.20;99.90;;;;;;5050777;28;20236;-71
2023/06/01 06:12:58;;;;;;;6.07;1.63;;;19.10;99.90;;;;;;5050885;28;20249;-71
2023/06/01 06:15:26;;;;;;;7.30;1.70;;;19.00;99.90;;;;;;5050785;28;20218;-70
2023/06/01 06:17:54;;;;;;;4.17;1.53;;;18.80;99.90;;;;;;5035559;28;20177;-71
2023/06/01 06:20:22;;;;;;;4.30;1.70;;;18.60;99.90;;;;;;5013461;28;20268;-71
2023/06/01 06:22:53;;;;;;;2.23;1.53;;;18.60;99.90;;;;;;5031152;28;20185;-71
2023/06/01 06:25:21;;;;;;;3.10;1.10;;;18.50;99.90;;;;;;5033787;28;20180;-70
2023/06/01 06:27:49;;;;;;;5.37;1.37;;;18.50;99.90;;;;;;5069531;28;20168;-70
2023/06/01 06:30:17;;;;;;;2.43;1.50;;;18.50;99.90;;;;;;5070702;28;20238;-70
2023/06/01 06:32:44;;;;;;;5.10;1.53;;;18.40;99.90;;;;;;5074375;28;20231;-69
2023/06/01 06:35:12;;;;;;;5.33;1.40;;;18.30;99.90;;;;;;5065575;28;20203;-71
2023/06/01 06:37:43;;;;;;;2.97;1.40;;;18.00;99.90;;;;;;5073919;28;20199;-70
2023/06/01 06:40:11;;;;;;;1.93;1.30;;;18.00;99.90;;;;;;5072619;28;20177;-70
2023/06/01 06:42:39;;;;;;;6.37;1.50;;;17.90;99.90;;;;;;5070397;28;20202;-70
2023/06/01 06:45:08;;;;;;;6.00;1.87;;;17.80;99.90;;;;;;5063472;28;20712;-70
2023/06/01 06:47:35;;;;;;;6.07;2.50;;;17.70;99.90;;;;;;5071119;28;20176;-69
2023/06/01 06:50:03;;;;;;;7.23;3.37;;;17.60;99.90;;;;;;5073956;28;20179;-72
2023/06/01 06:52:31;;;;;;;19.57;7.90;;;17.50;99.90;;;;;;5067129;28;20205;-71
2023/06/01 06:54:59;;;;;;;18.50;9.80;;;17.50;99.90;;;;;;5071207;28;20176;-70
2023/06/01 06:57:26;;;;;;;9.60;6.03;;;17.30;99.90;;;;;;5055303;28;20201;-71
2023/06/01 06:59:54;;;;;;;6.77;4.00;;;17.20;99.90;;;;;;5054285;28;20359;-71
2023/06/01 07:02:22;;;;;;;4.40;2.90;;;17.10;99.90;;;;;;5054404;28;20177;-72
2023/06/01 07:04:50;;;;;;;6.57;2.40;;;17.10;99.90;;;;;;5054104;28;20253;-71
2023/06/01 07:07:18;;;;;;;4.63;1.97;;;17.00;99.90;;;;;;5053848;28;20182;-72
2023/06/01 07:09:46;;;;;;;9.00;2.63;;;16.80;99.90;;;;;;5047603;28;20721;-71
2023/06/01 07:12:13;;;;;;;4.27;2.07;;;16.60;99.90;;;;;;5054645;28;20274;-70
2023/06/01 07:14:41;;;;;;;7.00;2.47;;;16.40;99.90;;;;;;5053172;28;20203;-71
2023/06/01 07:17:09;;;;;;;18.37;9.57;;;16.20;99.90;;;;;;5054029;28;20195;-72
2023/06/01 07:19:37;;;;;;;47.27;31.70;;;16.10;99.90;;;;;;5053809;28;20222;-72
2023/06/01 07:22:05;;;;;;;16.40;10.73;;;16.00;99.90;;;;;;5053866;28;20182;-72
2023/06/01 07:24:32;;;;;;;18.60;9.10;;;15.90;99.90;;;;;;5053814;28;20251;-71
2023/06/01 07:27:00;;;;;;;13.13;7.43;;;15.80;99.90;;;;;;5054029;28;20264;-72
2023/06/01 07:29:28;;;;;;;11.50;5.63;;;15.80;99.90;;;;;;5057767;28;20192;-71
2023/06/01 07:31:56;;;;;;;13.40;6.70;;;15.70;99.90;;;;;;5053200;28;20212;-71
2023/06/01 07:34:24;;;;;;;15.23;7.73;;;15.60;99.90;;;;;;5053795;28;20705;-72
2023/06/01 07:36:53;;;;;;;11.47;6.97;;;15.50;99.90;;;;;;5035385;28;20660;-73
2023/06/01 07:39:20;;;;;;;13.57;5.67;;;15.40;99.90;;;;;;5037325;28;20574;-72
2023/06/01 07:41:50;;;;;;;9.27;6.87;;;15.30;99.90;;;;;;5073472;28;20532;-71
2023/06/01 07:44:18;;;;;;;13.70;6.37;;;15.30;99.90;;;;;;5073250;28;20231;-72
2023/06/01 07:46:46;;;;;;;16.60;6.50;;;15.20;99.90;;;;;;5055854;28;20212;-71
2023/06/01 07:49:17;;;;;;;15.43;4.00;;;15.10;99.90;;;;;;5035531;28;20191;-71
2023/06/01 07:51:45;;;;;;;6.77;3.87;;;15.10;99.90;;;;;;5053262;28;20287;-69
2023/06/01 07:54:13;;;;;;;9.40;5.53;;;15.00;99.90;;;;;;5034534;28;20644;-69
2023/06/01 07:56:41;;;;;;;10.00;4.10;;;14.90;99.90;;;;;;5052957;28;20208;-69
2023/06/01 07:59:08;;;;;;;5.90;3.43;;;14.80;99.90;;;;;;5053329;28;20227;-70
2023/06/01 08:01:37;;;;;;;7.77;3.73;;;14.70;99.90;;;;;;5051959;28;20192;-69
2023/06/01 08:04:05;;;;;;;6.60;3.67;;;14.60;99.90;;;;;;5061624;28;20668;-72
2023/06/01 08:06:35;;;;;;;5.47;3.50;;;14.60;99.90;;;;;;5040198;28;20180;-71
2023/06/01 08:09:05;;;;;;;9.80;3.97;;;14.40;99.90;;;;;;5062645;28;20194;-72
2023/06/01 08:11:33;;;;;;;5.17;3.10;;;14.40;99.90;;;;;;5072724;28;20190;-72
2023/06/01 08:14:02;;;;;;;7.70;4.30;;;14.40;99.90;;;;;;5069699;28;20196;-72
2023/06/01 08:16:31;;;;;;;10.83;4.30;;;14.30;99.90;;;;;;5068623;28;20172;-70
2023/06/01 08:18:59;;;;;;;7.00;4.00;;;14.20;99.90;;;;;;5071899;28;20183;-71
2023/06/01 08:21:27;;;;;;;7.10;4.20;;;14.20;99.90;;;;;;5072806;28;20176;-71
2023/06/01 08:23:55;;;;;;;10.50;4.50;;;14.20;99.90;;;;;;5061141;28;20178;-72
2023/06/01 08:26:23;;;;;;;10.93;5.27;;;14.10;99.90;;;;;;5033099;28;20268;-73
2023/06/01 08:28:54;;;;;;;8.37;5.30;;;14.10;99.90;;;;;;5034544;28;20177;-72
2023/06/01 08:31:23;;;;;;;9.37;4.97;;;14.00;99.90;;;;;;5052813;28;20187;-72
2023/06/01 08:33:55;;;;;;;8.43;4.30;;;14.00;99.90;;;;;;5056378;28;20271;-72
2023/06/01 08:36:23;;;;;;;7.70;4.67;;;14.00;99.90;;;;;;5052733;28;20177;-72
2023/06/01 08:38:55;;;;;;;10.43;4.90;;;13.90;99.90;;;;;;5052637;28;20195;-72
2023/06/01 08:41:42;;;;;;;11.00;4.80;;;13.90;99.90;;;;;;5052549;28;20557;-72
2023/06/01 08:44:13;;;;;;;9.13;4.57;;;13.90;99.90;;;;;;5052499;28;20688;-71
2023/06/01 08:46:42;;;;;;;12.53;5.37;;;13.90;99.90;;;;;;5051655;28;20220;-71
2023/06/01 08:49:15;;;;;;;9.67;5.20;;;13.80;99.90;;;;;;5051604;28;20272;-70
2023/06/01 08:51:45;;;;;;;12.33;6.00;;;13.80;99.90;;;;;;5051999;28;20231;-72
2023/06/01 08:54:13;;;;;;;15.57;7.73;;;13.80;99.90;;;;;;5052583;28;20184;-72
2023/06/01 08:56:42;;;;;;;22.47;7.37;;;13.80;99.90;;;;;;5051687;28;20180;-71
2023/06/01 08:59:15;;;;;;;12.23;6.93;;;13.80;99.90;;;;;;5052335;28;20224;-72
2023/06/01 09:01:44;;;;;;;11.70;6.03;;;13.70;99.90;;;;;;5052568;28;20184;-72
2023/06/01 09:04:13;;;;;;;10.47;5.73;;;13.60;99.90;;;;;;5033896;28;20184;-71
2023/06/01 09:06:43;;;;;;;8.17;5.17;;;13.60;99.90;;;;;;5051965;28;20358;-71
2023/06/01 09:09:12;;;;;;;8.90;5.57;;;13.50;99.90;;;;;;5051911;28;20188;-72
2023/06/01 09:11:40;;;;;;;11.00;5.67;;;13.40;99.90;;;;;;5054813;28;20195;-71
2023/06/01 09:14:26;;;;;;;7.03;5.40;;;13.40;99.90;;;;;;5051472;28;20185;-71
2023/06/01 09:16:54;;;;;;;8.77;6.13;;;13.30;99.90;;;;;;5032127;28;20184;-71
2023/06/01 09:19:22;;;;;;;8.10;6.27;;;13.30;99.90;;;;;;5032319;28;20182;-72
2023/06/01 09:22:00;;;;;;;12.10;7.10;;;13.40;99.90;;;;;;5032190;28;20189;-72
2023/06/01 09:24:28;;;;;;;9.43;6.70;;;13.40;99.90;;;;;;5048407;28;20196;-72
2023/06/01 09:27:04;;;;;;;12.47;7.40;;;13.40;99.90;;;;;;5051220;28;20181;-72
2023/06/01 09:29:32;;;;;;;10.17;6.70;;;13.40;99.90;;;;;;5051860;28;20182;-72
2023/06/01 09:32:01;;;;;;;12.47;6.73;;;13.30;99.90;;;;;;5051833;28;20210;-72
2023/06/01 09:34:30;;;;;;;16.33;7.10;;;13.20;99.90;;;;;;5051590;28;20180;-72
2023/06/01 09:37:05;;;;;;;14.27;6.87;;;13.10;99.90;;;;;;5051387;28;20645;-73
2023/06/01 09:39:35;;;;;;;15.00;7.37;;;13.10;99.90;;;;;;5051636;28;20675;-72
2023/06/01 09:42:03;;;;;;;13.40;7.43;;;13.00;99.90;;;;;;5051719;28;20190;-73
2023/06/01 09:44:35;;;;;;;10.27;7.57;;;13.00;99.90;;;;;;5051115;28;20261;-71
2023/06/01 09:47:04;;;;;;;15.90;8.83;;;13.00;99.90;;;;;;5051008;28;20191;-72
2023/06/01 09:49:37;;;;;;;12.73;8.57;;;13.10;99.90;;;;;;5051484;28;20168;-71
2023/06/01 09:52:05;;;;;;;17.43;12.47;;;13.10;99.90;;;;;;5051166;28;20211;-71
2023/06/01 09:54:50;;;;;;;18.77;11.23;;;13.10;99.90;;;;;;5050937;28;20214;-71
2023/06/01 09:57:23;;;;;;;15.93;10.07;;;13.10;99.90;;;;;;5031470;28;20317;-72
2023/06/01 09:59:51;;;;;;;17.20;10.07;;;13.00;99.90;;;;;;5046339;28;20668;-71
2023/06/01 10:02:22;;;;;;;13.03;9.57;;;13.00;99.90;;;;;;5051459;28;20181;-72
2023/06/01 10:04:59;;;;;;;19.63;10.90;;;12.90;99.90;;;;;;5050744;28;20753;-71
2023/06/01 10:07:33;;;;;;;20.17;13.57;;;12.80;99.90;;;;;;5031415;28;20181;-71
2023/06/01 10:10:05;;;;;;;23.10;12.40;;;12.70;99.90;;;;;;5041829;28;20274;-73
2023/06/01 10:12:34;;;;;;;19.90;9.73;;;12.70;99.90;;;;;;5050061;28;20369;-71
2023/06/01 10:15:03;;;;;;;26.47;10.73;;;13.00;99.90;;;;;;5047566;28;20184;-71
2023/06/01 10:17:32;;;;;;;20.97;10.23;;;13.10;99.90;;;;;;5050189;28;20245;-72
2023/06/01 10:20:01;;;;;;;15.23;9.73;;;13.10;99.90;;;;;;5050863;28;20179;-72
2023/06/01 10:22:29;;;;;;;14.63;8.77;;;13.00;99.90;;;;;;5050478;28;20633;-73
2023/06/01 10:25:00;;;;;;;13.80;8.80;;;12.90;99.90;;;;;;5049886;28;20191;-72
2023/06/01 10:27:40;;;;;;;17.77;8.90;;;12.90;99.90;;;;;;5050572;28;20318;-71
2023/06/01 10:30:11;;;;;;;13.40;8.53;;;12.80;99.90;;;;;;5050847;28;20211;-72
2023/06/01 10:32:48;;;;;;;16.57;8.50;;;12.60;99.90;;;;;;5050527;28;20273;-69
2023/06/01 10:35:32;;;;;;;15.33;8.43;;;12.50;99.90;;;;;;5050366;28;20195;-71
2023/06/01 10:38:16;;;;;;;15.53;7.83;;;12.50;99.90;;;;;;5050776;28;20649;-73
2023/06/01 10:41:23;;;;;;;16.73;9.37;;;12.40;99.90;;;;;;5050131;28;20610;-71
2023/06/01 10:43:51;;;;;;;15.10;8.77;;;12.40;99.90;;;;;;5050474;28;20175;-71
2023/06/01 10:46:40;;;;;;;11.17;8.63;;;12.40;99.90;;;;;;5050706;28;20200;-73
2023/06/01 10:52:41;;;;;;;16.23;9.80;;;12.50;99.90;;;;;;5049697;28;20305;-71
2023/06/01 10:55:13;;;;;;;13.57;9.17;;;12.40;99.90;;;;;;5050546;28;20176;-71
2023/06/01 10:57:48;;;;;;;17.33;10.80;;;12.20;99.90;;;;;;5032697;28;20188;-72
2023/06/01 11:00:26;;;;;;;20.77;12.13;;;12.30;99.90;;;;;;5050371;28;20168;-72
2023/06/01 11:02:56;;;;;;;21.53;10.83;;;12.20;99.90;;;;;;5050519;28;20194;-72
2023/06/01 11:05:47;;;;;;;20.47;11.60;;;12.20;99.90;;;;;;5032641;28;20180;-71
2023/06/01 11:08:23;;;;;;;22.53;11.03;;;12.10;99.90;;;;;;5050465;28;20167;-72
2023/06/01 11:11:05;;;;;;;19.97;11.17;;;12.00;99.90;;;;;;5052177;28;20339;-71
2023/06/01 11:13:39;;;;;;;15.83;9.83;;;12.00;99.90;;;;;;5053714;28;20207;-73
2023/06/01 11:16:10;;;;;;;15.40;10.07;;;11.90;99.90;;;;;;5054065;28;20179;-72
2023/06/01 11:18:57;;;;;;;16.87;9.77;;;11.90;99.90;;;;;;5053893;28;20182;-71
2023/06/01 11:21:48;;;;;;;15.07;8.90;;;11.90;99.90;;;;;;5053914;28;20171;-71
2023/06/01 11:24:17;;;;;;;13.13;9.00;;;11.90;99.90;;;;;;5053669;28;20172;-71
2023/06/01 11:26:47;;;;;;;15.50;9.50;;;12.00;99.90;;;;;;5053898;28;20309;-71
2023/06/01 11:29:25;;;;;;;19.53;10.03;;;12.00;99.90;;;;;;5053645;28;20257;-71
2023/06/01 11:31:58;;;;;;;15.37;9.23;;;11.90;99.90;;;;;;5053442;28;20206;-71
2023/06/01 11:34:45;;;;;;;17.50;10.13;;;11.80;99.90;;;;;;5053414;28;20178;-69
2023/06/01 11:37:21;;;;;;;17.67;9.43;;;11.80;99.90;;;;;;5048598;28;20203;-71
2023/06/01 11:39:49;;;;;;;18.10;9.60;;;11.70;99.90;;;;;;5051492;28;20187;-71
2023/06/01 11:42:19;;;;;;;13.97;9.20;;;11.70;99.90;;;;;;5053248;28;20175;-71
2023/06/01 11:44:57;;;;;;;15.87;9.47;;;11.70;99.90;;;;;;5045707;28;20225;-71
2023/06/01 11:47:29;;;;;;;14.73;9.47;;;11.70;99.90;;;;;;5034967;28;20186;-70
2023/06/01 11:49:57;;;;;;;17.03;9.23;;;11.70;99.90;;;;;;5034717;28;20183;-71
2023/06/01 11:52:25;;;;;;;16.53;9.47;;;11.60;99.90;;;;;;5034313;28;20219;-71
2023/06/01 11:54:53;;;;;;;20.27;9.33;;;11.50;99.90;;;;;;5016725;28;20180;-71
2023/06/01 11:57:21;;;;;;;14.63;9.37;;;11.50;99.90;;;;;;5034080;28;20184;-70
2023/06/01 11:59:50;;;;;;;16.67;10.40;;;11.50;99.90;;;;;;5034633;28;20527;-72
2023/06/01 12:02:29;;;;;;;14.97;9.83;;;11.50;99.90;;;;;;5016508;28;20192;-71
2023/06/01 12:05:10;;;;;;;14.53;9.40;;;11.50;99.90;;;;;;5034743;28;20257;-71
2023/06/01 12:07:50;;;;;;;18.23;9.27;;;11.50;99.90;;;;;;5034172;28;20205;-71
2023/06/01 12:10:20;;;;;;;13.30;8.40;;;11.50;99.90;;;;;;5034320;28;20647;-71
2023/06/01 12:12:48;;;;;;;14.30;8.10;;;11.40;99.90;;;;;;5033679;28;20228;-71
2023/06/01 12:15:18;;;;;;;16.23;8.20;;;11.50;99.90;;;;;;5034060;28;20646;-72
2023/06/01 12:17:53;;;;;;;12.57;7.33;;;11.50;99.90;;;;;;5034560;28;20180;-71
2023/06/01 12:20:41;;;;;;;11.40;7.70;;;11.50;99.90;;;;;;5033859;28;20189;-71
2023/06/01 12:23:15;;;;;;;17.47;8.20;;;11.40;99.90;;;;;;5032978;28;20186;-71
2023/06/01 12:25:57;;;;;;;14.67;8.10;;;11.40;99.90;;;;;;5034131;28;20187;-73
2023/06/01 12:28:29;;;;;;;16.60;8.70;;;11.40;99.90;;;;;;5016025;28;20183;-70
2023/06/01 12:31:13;;;;;;;18.83;7.87;;;11.30;99.90;;;;;;5035204;28;20171;-70
2023/06/01 12:33:46;;;;;;;11.47;7.20;;;11.30;99.90;;;;;;5012610;28;20215;-71
2023/06/01 12:36:34;;;;;;;14.27;7.77;;;11.30;99.90;;;;;;5013803;28;20265;-71
2023/06/01 12:39:04;;;;;;;15.93;8.20;;;11.30;99.90;;;;;;5013798;28;20641;-71
2023/06/01 12:41:32;;;;;;;15.00;7.57;;;11.30;99.90;;;;;;5014005;28;20181;-71
2023/06/01 12:44:00;;;;;;;12.90;7.43;;;11.30;99.90;;;;;;5015724;28;20187;-71
2023/06/01 12:46:35;;;;;;;14.70;8.03;;;11.20;99.90;;;;;;5033489;28;20527;-70
2023/06/01 12:49:19;;;;;;;15.60;7.97;;;11.20;99.90;;;;;;5033521;28;20183;-70
2023/06/01 12:51:47;;;;;;;19.33;7.50;;;11.30;99.90;;;;;;5032680;28;20276;-71
2023/06/01 12:54:15;;;;;;;16.47;8.27;;;11.30;99.90;;;;;;5053195;28;20183;-72
2023/06/01 12:56:42;;;;;;;20.07;8.13;;;11.30;99.90;;;;;;5052813;28;20182;-70
2023/06/01 12:59:10;;;;;;;16.70;8.30;;;11.20;99.90;;;;;;5052859;28;20172;-71
2023/06/01 13:01:41;;;;;;;14.33;7.33;;;11.10;99.90;;;;;;5030729;28;20178;-70
2023/06/01 13:04:08;;;;;;;13.00;7.47;;;11.10;99.90;;;;;;5033391;28;20186;-71
2023/06/01 13:06:38;;;;;;;16.87;8.13;;;11.10;99.90;;;;;;5036557;28;20214;-70
2023/06/01 13:09:07;;;;;;;15.63;8.00;;;11.10;99.90;;;;;;5034740;28;20183;-71
2023/06/01 13:11:35;;;;;;;20.93;9.97;;;11.10;99.90;;;;;;5052725;28;20183;-71